Time;durP1;ratioP1;P1;durP2;ratioP2;P2;SDS_P1;SDS_P2;PMS_P1;PMS_P2;Temp;Humidity;BMP_temperature;BMP_pressure;BME280_temperature;BME280_humidity;BME280_pressure;Samples;Min_cycle;Max_cycle;Signal;HPM_P1;HPM_P2
2023/03/08 00:01:22;;;;;;;4.10;1.20;;;-1.80;99.90;;;;;;4912914;29;20040;-80
2023/03/08 00:03:53;;;;;;;3.50;1.58;;;-1.70;99.90;;;;;;4895394;29;20119;-80
2023/03/08 00:06:21;;;;;;;3.03;1.15;;;-1.80;99.90;;;;;;4895379;29;20044;-78
2023/03/08 00:08:48;;;;;;;2.38;1.35;;;-1.80;99.90;;;;;;4911341;29;20040;-80
2023/03/08 00:11:16;;;;;;;3.78;1.65;;;-1.80;99.90;;;;;;4911849;29;20032;-83
2023/03/08 00:13:43;;;;;;;5.15;2.10;;;-1.90;99.90;;;;;;4911456;29;20028;-81
2023/03/08 00:16:12;;;;;;;3.67;2.17;;;-1.90;99.90;;;;;;4912647;29;20032;-84
2023/03/08 00:18:40;;;;;;;4.00;1.50;;;-1.80;99.90;;;;;;4889863;29;20465;-79
2023/03/08 00:21:17;;;;;;;4.38;2.17;;;-1.80;99.90;;;;;;4911325;29;20031;-77
2023/03/08 00:23:45;;;;;;;4.18;1.90;;;-1.80;99.90;;;;;;4892245;29;20039;-77
2023/03/08 00:26:13;;;;;;;3.85;1.95;;;-1.90;99.90;;;;;;4893448;29;20047;-81
2023/03/08 00:28:40;;;;;;;4.35;2.30;;;-1.90;99.90;;;;;;4910325;29;20063;-78
2023/03/08 00:31:10;;;;;;;3.75;1.90;;;-1.80;99.90;;;;;;4890709;29;20107;-79
2023/03/08 00:33:36;;;;;;;4.30;2.35;;;-1.80;99.90;;;;;;4912497;29;20036;-80
2023/03/08 00:36:17;;;;;;;4.20;1.75;;;-1.90;99.90;;;;;;4889924;29;20036;-78
2023/03/08 00:38:45;;;;;;;3.13;1.30;;;-1.90;99.90;;;;;;4894837;29;20028;-79
2023/03/08 00:41:15;;;;;;;4.38;1.90;;;-1.80;99.90;;;;;;4891818;29;20496;-83
2023/03/08 00:43:42;;;;;;;3.17;1.52;;;-1.90;99.90;;;;;;4911132;29;20465;-78
2023/03/08 00:46:08;;;;;;;4.28;1.92;;;-1.90;99.90;;;;;;4892439;29;20048;-82
2023/03/08 00:48:35;;;;;;;5.22;2.40;;;-1.70;99.90;;;;;;4895104;29;20040;-80
2023/03/08 00:51:02;;;;;;;6.03;2.70;;;-1.70;99.90;;;;;;4891182;29;20035;-78
2023/03/08 00:53:29;;;;;;;6.47;2.55;;;-1.70;99.90;;;;;;4911003;29;20024;-78
2023/03/08 00:55:58;;;;;;;4.93;2.15;;;-1.60;99.90;;;;;;4910431;29;20064;-81
2023/03/08 00:58:27;;;;;;;7.75;3.80;;;-1.50;99.90;;;;;;4892486;29;20035;-80
2023/03/08 01:00:57;;;;;;;8.52;5.13;;;-1.30;99.90;;;;;;4906694;29;20036;-82
2023/03/08 01:03:25;;;;;;;9.63;5.22;;;-1.30;99.90;;;;;;4891719;29;20509;-79
2023/03/08 01:05:54;;;;;;;9.77;5.80;;;-1.20;99.90;;;;;;4910568;29;20040;-81
2023/03/08 01:08:25;;;;;;;10.23;5.22;;;-1.20;99.90;;;;;;4891926;29;20035;-84
2023/03/08 01:10:52;;;;;;;;;;;-1.20;99.90;;;;;;4892238;29;20064;-83
2023/03/08 01:13:20;;;;;;;12.85;6.05;;;-1.10;99.90;;;;;;4891330;29;20380;-82
2023/03/08 01:15:47;;;;;;;12.98;6.15;;;-1.00;99.90;;;;;;4890877;29;20028;-83
2023/03/08 01:18:13;;;;;;;11.15;5.70;;;-1.00;99.90;;;;;;4910589;29;20028;-80
2023/03/08 01:20:40;;;;;;;9.65;5.35;;;-0.90;99.90;;;;;;4889133;29;20482;-78
2023/03/08 01:23:06;;;;;;;9.55;5.13;;;-1.00;99.90;;;;;;4911968;29;20115;-84
2023/03/08 01:25:33;;;;;;;8.90;4.55;;;-0.90;99.90;;;;;;4909951;29;20371;-82
2023/03/08 01:28:00;;;;;;;9.50;4.80;;;-0.90;99.90;;;;;;4891530;29;20075;-81
2023/03/08 01:30:27;;;;;;;10.05;4.60;;;-0.90;99.90;;;;;;4912729;29;20028;-79
2023/03/08 01:32:54;;;;;;;10.80;4.97;;;-0.90;99.90;;;;;;4914167;29;20039;-84
2023/03/08 01:35:21;;;;;;;9.07;4.88;;;-0.80;99.90;;;;;;4913551;29;20028;-84
2023/03/08 01:37:53;;;;;;;10.70;5.20;;;-0.80;99.90;;;;;;4896950;29;20119;-82
2023/03/08 01:40:22;;;;;;;12.65;5.47;;;-0.80;99.90;;;;;;4902802;29;20158;-83
2023/03/08 01:42:48;;;;;;;10.68;5.30;;;-0.80;99.90;;;;;;4895745;29;20038;-83
2023/03/08 01:45:52;;;;;;;10.55;4.95;;;-0.80;99.90;;;;;;4913561;29;20421;-84
2023/03/08 01:48:24;;;;;;;9.00;4.57;;;-0.80;99.90;;;;;;4907865;29;20024;-84
2023/03/08 01:51:01;;;;;;;10.68;4.55;;;-0.70;99.90;;;;;;4913083;29;20032;-83
2023/03/08 01:53:28;;;;;;;17.33;7.88;;;-0.70;99.90;;;;;;4898033;29;20032;-81
2023/03/08 01:55:56;;;;;;;12.40;5.90;;;-0.70;99.90;;;;;;4897699;29;20430;-82
2023/03/08 01:58:23;;;;;;;13.35;7.47;;;-0.70;99.90;;;;;;4913916;29;20028;-81
2023/03/08 02:00:50;;;;;;;11.32;5.72;;;-0.70;99.90;;;;;;4896223;29;20036;-81
2023/03/08 02:03:16;;;;;;;13.18;6.22;;;-0.70;99.90;;;;;;4895323;29;20119;-85
2023/03/08 02:05:43;;;;;;;13.35;7.07;;;-0.70;99.90;;;;;;4893274;29;20033;-80
2023/03/08 02:08:15;;;;;;;13.45;6.85;;;-0.60;99.90;;;;;;4897480;29;20024;-83
2023/03/08 02:10:44;;;;;;;19.73;6.40;;;-0.60;99.90;;;;;;4895833;29;20110;-83
2023/03/08 02:13:11;;;;;;;11.50;5.38;;;-0.60;99.90;;;;;;4913408;29;20084;-83
2023/03/08 02:15:41;;;;;;;8.68;4.00;;;-0.60;99.90;;;;;;4912471;29;20075;-82
2023/03/08 02:18:08;;;;;;;9.52;4.20;;;-0.50;99.90;;;;;;4896696;29;20024;-80
2023/03/08 02:20:37;;;;;;;11.95;5.60;;;-0.50;99.90;;;;;;4914086;29;20064;-79
2023/03/08 02:23:21;;;;;;;7.93;4.53;;;-0.50;99.90;;;;;;4892823;29;20059;-80
2023/03/08 02:25:55;;;;;;;7.40;3.42;;;-0.50;99.90;;;;;;4913637;29;20076;-80
2023/03/08 02:28:23;;;;;;;9.60;5.05;;;-0.50;99.90;;;;;;4912433;29;20055;-79
2023/03/08 02:30:52;;;;;;;9.38;4.60;;;-0.40;99.90;;;;;;4897400;29;20116;-79
2023/03/08 02:33:19;;;;;;;10.32;5.28;;;-0.50;99.90;;;;;;4914592;29;20473;-78
2023/03/08 02:35:46;;;;;;;13.93;6.45;;;-0.40;99.90;;;;;;4912357;29;20052;-80
2023/03/08 02:38:14;;;;;;;11.88;5.47;;;-0.40;99.90;;;;;;4913103;29;20421;-80
2023/03/08 02:40:41;;;;;;;11.38;5.72;;;-0.40;99.90;;;;;;4895833;29;20047;-79
2023/03/08 02:43:09;;;;;;;11.05;5.38;;;-0.30;99.90;;;;;;4912135;29;20052;-80
2023/03/08 02:45:39;;;;;;;12.45;5.40;;;-0.30;99.90;;;;;;4908271;29;20036;-79
2023/03/08 02:48:08;;;;;;;11.40;5.47;;;-0.30;99.90;;;;;;4896472;29;20029;-82
2023/03/08 02:50:37;;;;;;;11.85;6.50;;;-0.30;99.90;;;;;;4912665;29;20024;-81
2023/03/08 02:53:05;;;;;;;16.02;7.28;;;-0.20;99.90;;;;;;4895287;29;20028;-80
2023/03/08 02:55:34;;;;;;;14.00;7.63;;;-0.20;99.90;;;;;;4895371;29;20051;-83
2023/03/08 02:58:04;;;;;;;13.30;6.57;;;-0.20;99.90;;;;;;4894584;29;20092;-85
2023/03/08 03:00:31;;;;;;;13.13;6.45;;;-0.20;99.90;;;;;;4914095;29;20068;-83
2023/03/08 03:02:57;;;;;;;15.68;8.20;;;-0.20;99.90;;;;;;4895016;29;20032;-83
2023/03/08 03:05:26;;;;;;;14.40;6.68;;;-0.20;99.90;;;;;;4894336;29;20024;-83
2023/03/08 03:07:54;;;;;;;14.73;8.27;;;-0.20;99.90;;;;;;4911875;29;20028;-84
2023/03/08 03:10:20;;;;;;;15.02;7.47;;;-0.10;99.90;;;;;;4893538;29;20035;-81
2023/03/08 03:12:47;;;;;;;14.50;7.50;;;-0.10;99.90;;;;;;4892906;29;20044;-83
2023/03/08 03:15:18;;;;;;;12.50;6.57;;;-0.10;99.90;;;;;;4893096;29;20043;-83
2023/03/08 03:17:48;;;;;;;16.70;7.80;;;-0.10;99.90;;;;;;4896007;29;20028;-85
2023/03/08 03:20:14;;;;;;;14.38;7.20;;;-0.10;99.90;;;;;;4892188;29;20107;-79
2023/03/08 03:22:41;;;;;;;10.77;5.15;;;-0.10;99.90;;;;;;4912302;29;20047;-84
2023/03/08 03:25:08;;;;;;;14.07;6.55;;;-0.10;99.90;;;;;;4912588;29;20076;-84
2023/03/08 03:27:34;;;;;;;14.43;7.45;;;-0.10;99.90;;;;;;4912684;29;20057;-84
2023/03/08 03:30:01;;;;;;;13.75;6.53;;;0.00;99.90;;;;;;4912298;29;20083;-80
2023/03/08 03:32:29;;;;;;;14.60;7.30;;;0.00;99.90;;;;;;4913338;29;20088;-83
2023/03/08 03:34:55;;;;;;;15.05;6.63;;;0.00;99.90;;;;;;4894425;29;20028;-80
2023/03/08 03:37:22;;;;;;;18.63;9.65;;;0.00;99.90;;;;;;4893433;29;20047;-84
2023/03/08 03:39:49;;;;;;;20.52;10.18;;;0.00;99.90;;;;;;4896014;29;20509;-84
2023/03/08 03:42:18;;;;;;;18.92;9.45;;;0.00;99.90;;;;;;4896329;29;20035;-84
2023/03/08 03:44:58;;;;;;;17.35;8.40;;;0.00;99.90;;;;;;4912300;29;20040;-81
2023/03/08 03:47:25;;;;;;;17.20;9.00;;;0.00;99.90;;;;;;4895844;29;20032;-79
2023/03/08 03:49:55;;;;;;;17.27;8.60;;;0.00;99.90;;;;;;4911368;29;20119;-82
2023/03/08 03:52:22;;;;;;;16.25;8.73;;;0.00;99.90;;;;;;4893560;29;20040;-79
2023/03/08 03:54:56;;;;;;;19.83;10.65;;;0.00;99.90;;;;;;4912058;29;20031;-83
2023/03/08 03:57:23;;;;;;;21.38;10.82;;;0.10;99.90;;;;;;4880921;29;20555;-84
2023/03/08 03:59:49;;;;;;;20.65;9.40;;;0.10;99.90;;;;;;4894253;29;20110;-85
2023/03/08 04:02:16;;;;;;;18.88;8.52;;;0.00;99.90;;;;;;4895814;29;20052;-84
2023/03/08 04:04:49;;;;;;;17.35;8.45;;;0.00;99.90;;;;;;4894854;29;20035;-83
2023/03/08 04:07:18;;;;;;;;;;;0.10;99.90;;;;;;4894591;29;20032;-84
2023/03/08 04:09:52;;;;;;;17.08;7.07;;;0.00;99.90;;;;;;4896333;29;19965;-84
2023/03/08 04:12:19;;;;;;;17.08;8.00;;;0.00;99.90;;;;;;4912145;29;20028;-84
2023/03/08 04:14:45;;;;;;;21.10;8.10;;;0.10;99.90;;;;;;4910905;29;20040;-84
2023/03/08 04:17:13;;;;;;;17.83;8.38;;;0.10;99.90;;;;;;4896142;29;20032;-82
2023/03/08 04:19:49;;;;;;;14.52;6.07;;;0.10;99.90;;;;;;4895316;29;20100;-83
2023/03/08 04:22:16;;;;;;;14.20;6.10;;;0.10;99.90;;;;;;4894019;29;20511;-82
2023/03/08 04:24:48;;;;;;;14.13;6.20;;;0.10;99.90;;;;;;4911259;29;20039;-84
2023/03/08 04:27:20;;;;;;;15.23;6.60;;;0.10;99.90;;;;;;4911980;29;20028;-84
2023/03/08 04:29:46;;;;;;;13.57;6.25;;;0.10;99.90;;;;;;4890305;29;20036;-80
2023/03/08 04:32:13;;;;;;;15.18;6.95;;;0.10;99.90;;;;;;4879506;29;20084;-80
2023/03/08 04:34:44;;;;;;;15.80;6.68;;;0.10;99.90;;;;;;4890060;29;20135;-80
2023/03/08 04:37:13;;;;;;;17.35;7.95;;;0.10;99.90;;;;;;4890233;29;20107;-80
2023/03/08 04:39:42;;;;;;;17.03;7.10;;;0.10;99.90;;;;;;4909954;29;20039;-80
2023/03/08 04:42:10;;;;;;;15.35;7.53;;;0.10;99.90;;;;;;4893413;29;20131;-81
2023/03/08 04:44:36;;;;;;;17.55;7.80;;;0.10;99.90;;;;;;4895313;29;20169;-80
2023/03/08 04:47:04;;;;;;;15.82;7.57;;;0.10;99.90;;;;;;4893912;29;20032;-84
2023/03/08 04:49:37;;;;;;;16.48;7.88;;;0.10;99.90;;;;;;4910796;29;20032;-78
2023/03/08 04:52:04;;;;;;;19.95;8.50;;;0.10;99.90;;;;;;4911087;29;20092;-80
2023/03/08 04:54:33;;;;;;;13.85;6.68;;;0.10;99.90;;;;;;4907332;29;20036;-83
2023/03/08 04:57:07;;;;;;;18.42;8.80;;;0.10;99.90;;;;;;4909409;29;20513;-84
2023/03/08 04:59:35;;;;;;;16.67;7.55;;;0.10;99.90;;;;;;4911172;29;20545;-85
2023/03/08 05:02:03;;;;;;;17.88;8.10;;;0.10;99.90;;;;;;4895149;29;20052;-85
2023/03/08 05:04:32;;;;;;;14.00;8.05;;;0.10;99.90;;;;;;4895986;29;20084;-84
2023/03/08 05:06:59;;;;;;;18.77;8.57;;;0.10;99.90;;;;;;4896244;29;20253;-82
2023/03/08 05:09:28;;;;;;;16.33;8.10;;;0.10;99.90;;;;;;4913686;29;20130;-81
2023/03/08 05:11:58;;;;;;;16.52;7.53;;;0.20;99.90;;;;;;4898563;29;20033;-81
2023/03/08 05:14:30;;;;;;;17.15;7.70;;;0.20;99.90;;;;;;4895823;29;20080;-80
2023/03/08 05:16:57;;;;;;;13.38;6.60;;;0.20;99.90;;;;;;4914335;29;20039;-79
2023/03/08 05:19:24;;;;;;;16.50;7.07;;;0.20;99.90;;;;;;4897782;29;20035;-81
2023/03/08 05:21:52;;;;;;;14.55;6.97;;;0.20;99.90;;;;;;4914360;29;20060;-81
2023/03/08 05:24:19;;;;;;;14.77;7.85;;;0.20;99.90;;;;;;4898887;29;20078;-81
2023/03/08 05:26:47;;;;;;;12.20;6.32;;;0.20;99.90;;;;;;4896314;29;20115;-81
2023/03/08 05:29:16;;;;;;;12.93;5.47;;;0.10;99.90;;;;;;4914001;29;20060;-81
2023/03/08 05:31:44;;;;;;;15.55;7.20;;;0.20;99.90;;;;;;4898130;29;20062;-81
2023/03/08 05:34:11;;;;;;;14.20;6.60;;;0.10;99.90;;;;;;4914400;29;20028;-81
2023/03/08 05:36:41;;;;;;;14.10;6.72;;;0.10;99.90;;;;;;4895290;29;20032;-81
2023/03/08 05:39:09;;;;;;;14.27;7.22;;;0.10;99.90;;;;;;4895821;29;20028;-80
2023/03/08 05:41:45;;;;;;;14.63;6.75;;;0.10;99.90;;;;;;4898825;29;20064;-82
2023/03/08 05:44:16;;;;;;;14.48;6.55;;;0.10;99.90;;;;;;4898853;29;20258;-82
2023/03/08 05:46:42;;;;;;;16.50;7.60;;;0.10;99.90;;;;;;4898082;29;20032;-80
2023/03/08 05:49:10;;;;;;;11.68;5.47;;;0.10;99.90;;;;;;4895552;29;20028;-84
2023/03/08 05:51:37;;;;;;;12.90;5.40;;;0.10;99.90;;;;;;4913446;29;20114;-83
2023/03/08 05:54:04;;;;;;;11.07;5.43;;;0.10;99.90;;;;;;4897433;29;20032;-83
2023/03/08 05:56:32;;;;;;;14.35;5.75;;;0.10;99.90;;;;;;4894688;29;20083;-82
2023/03/08 05:59:07;;;;;;;13.80;5.70;;;0.10;99.90;;;;;;4913148;29;20508;-83
2023/03/08 06:01:34;;;;;;;13.73;5.95;;;0.10;99.90;;;;;;4895532;29;20032;-84
2023/03/08 06:04:09;;;;;;;12.38;5.53;;;0.10;99.90;;;;;;4914391;29;20020;-84
2023/03/08 06:06:39;;;;;;;11.53;5.17;;;0.20;99.90;;;;;;4895350;29;20040;-82
2023/03/08 06:09:06;;;;;;;12.57;6.10;;;0.20;99.90;;;;;;4914109;29;20024;-83
2023/03/08 06:11:36;;;;;;;11.00;5.32;;;0.20;99.90;;;;;;4897470;29;20040;-82
2023/03/08 06:14:03;;;;;;;13.30;6.30;;;0.10;99.90;;;;;;4912846;29;20395;-83
2023/03/08 06:16:30;;;;;;;15.18;6.07;;;0.20;99.90;;;;;;4893879;29;20028;-81
2023/03/08 06:18:56;;;;;;;14.75;6.53;;;0.10;99.90;;;;;;4914614;29;20054;-85
2023/03/08 06:21:23;;;;;;;14.02;6.88;;;0.20;99.90;;;;;;4913417;29;20052;-84
2023/03/08 06:23:56;;;;;;;15.52;6.57;;;0.20;99.90;;;;;;4908063;29;20032;-85
2023/03/08 06:26:23;;;;;;;14.73;6.00;;;0.20;99.90;;;;;;4914303;29;20031;-82
2023/03/08 06:28:48;;;;;;;15.80;6.32;;;0.30;99.90;;;;;;4913099;29;20072;-82
2023/03/08 06:31:16;;;;;;;18.35;7.88;;;0.20;99.90;;;;;;4896190;29;20138;-82
2023/03/08 06:33:42;;;;;;;18.98;7.57;;;0.30;99.90;;;;;;4893841;29;20032;-82
2023/03/08 06:36:16;;;;;;;;;;;0.30;99.90;;;;;;4897747;29;20055;-82
2023/03/08 06:38:43;;;;;;;19.08;7.03;;;0.30;99.90;;;;;;4897529;29;19919;-80
2023/03/08 06:41:11;;;;;;;16.77;6.50;;;0.30;99.90;;;;;;4893966;29;20046;-81
2023/03/08 06:43:37;;;;;;;20.00;7.65;;;0.40;99.90;;;;;;4894841;29;20039;-80
2023/03/08 06:46:08;;;;;;;16.30;7.22;;;0.40;99.90;;;;;;4897790;29;20043;-81
2023/03/08 06:48:34;;;;;;;21.90;8.68;;;0.40;99.90;;;;;;4894975;29;20036;-81
2023/03/08 06:51:00;;;;;;;21.70;9.10;;;0.40;99.90;;;;;;4913119;29;20032;-83
2023/03/08 06:53:26;;;;;;;22.23;8.95;;;0.40;99.90;;;;;;4894075;29;20354;-82
2023/03/08 06:56:01;;;;;;;17.27;7.50;;;0.40;99.90;;;;;;4912571;29;20535;-81
2023/03/08 06:58:29;;;;;;;17.77;7.80;;;0.50;99.90;;;;;;4913520;29;20028;-81
2023/03/08 07:00:55;;;;;;;15.82;6.90;;;0.50;99.90;;;;;;4895583;29;20126;-85
2023/03/08 07:03:21;;;;;;;20.05;8.40;;;0.50;99.90;;;;;;4911911;29;20126;-82
2023/03/08 07:05:47;;;;;;;23.13;10.25;;;0.50;99.90;;;;;;4905573;29;20036;-81
2023/03/08 07:08:13;;;;;;;23.98;10.07;;;0.50;99.90;;;;;;4912067;29;20035;-84
2023/03/08 07:10:38;;;;;;;22.90;10.30;;;0.60;99.90;;;;;;4912174;29;20032;-81
2023/03/08 07:13:04;;;;;;;23.73;10.88;;;0.60;99.90;;;;;;4913546;29;20035;-82
2023/03/08 07:15:29;;;;;;;21.30;10.40;;;0.60;99.90;;;;;;4912569;29;20028;-82
2023/03/08 07:17:57;;;;;;;22.60;10.63;;;0.60;99.90;;;;;;4907060;29;20034;-84
2023/03/08 07:20:24;;;;;;;19.42;7.97;;;0.60;99.90;;;;;;4877536;29;20528;-83
2023/03/08 07:22:50;;;;;;;21.52;9.63;;;0.60;99.90;;;;;;4891567;29;20036;-85
2023/03/08 07:25:17;;;;;;;25.45;11.35;;;0.60;99.90;;;;;;4896680;29;20039;-85
2023/03/08 07:27:44;;;;;;;21.33;10.18;;;0.70;99.90;;;;;;4894694;29;20935;-84
2023/03/08 07:30:12;;;;;;;20.83;9.65;;;0.70;99.90;;;;;;4897534;29;20024;-84
2023/03/08 07:32:39;;;;;;;19.85;8.73;;;0.70;99.90;;;;;;4895874;29;20389;-84
2023/03/08 07:35:07;;;;;;;21.33;9.20;;;0.70;99.90;;;;;;4912649;29;20039;-86
2023/03/08 07:37:32;;;;;;;21.30;10.05;;;0.70;99.90;;;;;;4911872;29;20397;-84
2023/03/08 07:39:58;;;;;;;22.83;10.20;;;0.70;99.90;;;;;;4896614;29;20028;-84
2023/03/08 07:42:26;;;;;;;21.85;9.77;;;0.70;99.90;;;;;;4913045;29;20047;-85
2023/03/08 07:44:55;;;;;;;20.23;9.45;;;0.80;99.90;;;;;;4896194;29;20028;-86
2023/03/08 07:47:21;;;;;;;20.55;8.93;;;0.80;99.90;;;;;;4895777;29;20035;-85
2023/03/08 07:49:46;;;;;;;20.00;8.88;;;0.80;99.90;;;;;;4896300;29;20024;-88
2023/03/08 07:52:12;;;;;;;24.40;10.02;;;0.80;99.90;;;;;;4896730;29;20115;-86
2023/03/08 07:54:38;;;;;;;21.88;9.43;;;0.80;99.90;;;;;;4911844;29;20453;-85
2023/03/08 07:57:04;;;;;;;19.20;8.02;;;0.80;99.90;;;;;;4913350;29;20059;-85
2023/03/08 07:59:30;;;;;;;16.60;7.07;;;0.90;99.90;;;;;;4913163;29;20055;-83
2023/03/08 08:01:56;;;;;;;20.75;9.88;;;0.80;99.90;;;;;;4912587;29;20066;-84
2023/03/08 08:04:22;;;;;;;19.98;9.30;;;0.90;99.90;;;;;;4876738;29;20028;-83
2023/03/08 08:06:48;;;;;;;19.95;9.40;;;0.90;99.90;;;;;;4884691;29;20036;-84
2023/03/08 08:09:16;;;;;;;20.92;9.10;;;0.90;99.90;;;;;;4894505;29;20469;-82
2023/03/08 08:11:42;;;;;;;22.13;10.02;;;1.00;99.90;;;;;;4896217;29;20039;-84
2023/03/08 08:14:07;;;;;;;24.27;11.02;;;1.00;99.90;;;;;;4895316;29;20030;-83
2023/03/08 08:16:33;;;;;;;20.02;9.85;;;1.00;99.90;;;;;;4912122;29;20115;-83
2023/03/08 08:19:00;;;;;;;18.90;9.18;;;1.00;99.90;;;;;;4894298;29;20071;-84
2023/03/08 08:21:25;;;;;;;18.35;9.30;;;1.00;99.90;;;;;;4912834;29;20437;-85
2023/03/08 08:23:52;;;;;;;26.02;11.90;;;1.00;99.90;;;;;;4894135;29;20047;-83
2023/03/08 08:26:20;;;;;;;22.40;11.60;;;1.10;99.90;;;;;;4893783;29;20099;-83
2023/03/08 08:28:49;;;;;;;22.10;10.65;;;1.10;99.90;;;;;;4913002;29;20036;-84
2023/03/08 08:31:17;;;;;;;20.50;10.05;;;1.10;99.90;;;;;;4912866;29;20055;-86
2023/03/08 08:33:43;;;;;;;20.05;9.27;;;1.20;99.90;;;;;;4912931;29;20028;-85
2023/03/08 08:36:13;;;;;;;23.70;11.93;;;1.20;99.90;;;;;;4895956;29;20032;-87
2023/03/08 08:38:39;;;;;;;21.60;10.15;;;1.20;99.90;;;;;;4892330;29;20421;-84
2023/03/08 08:41:07;;;;;;;24.23;13.38;;;1.30;99.90;;;;;;4895501;29;20036;-85
2023/03/08 08:43:34;;;;;;;25.55;12.77;;;1.30;99.90;;;;;;4912748;29;20099;-85
2023/03/08 08:46:01;;;;;;;23.50;11.43;;;1.40;99.90;;;;;;4893708;29;20063;-85
2023/03/08 08:48:27;;;;;;;25.63;12.38;;;1.40;99.90;;;;;;4896052;29;20083;-85
2023/03/08 08:50:54;;;;;;;27.30;12.93;;;1.50;99.90;;;;;;4895549;29;20060;-84
2023/03/08 08:53:20;;;;;;;23.55;12.32;;;1.40;99.90;;;;;;4911932;29;20389;-85
2023/03/08 08:55:46;;;;;;;20.23;11.15;;;1.40;99.90;;;;;;4891934;29;20052;-84
2023/03/08 08:58:13;;;;;;;19.75;9.98;;;1.50;99.90;;;;;;4911646;29;20500;-85
2023/03/08 09:00:39;;;;;;;17.48;9.30;;;1.50;99.90;;;;;;4910930;29;20036;-83
2023/03/08 09:03:05;;;;;;;19.42;10.85;;;1.50;99.90;;;;;;4895877;29;20059;-83
2023/03/08 09:05:32;;;;;;;17.10;8.65;;;1.50;99.90;;;;;;4891473;29;20128;-84
2023/03/08 09:08:00;;;;;;;21.23;9.52;;;1.60;99.90;;;;;;4891947;29;20087;-82
2023/03/08 09:10:28;;;;;;;17.88;8.90;;;1.60;99.90;;;;;;4894033;29;20017;-83
2023/03/08 09:12:54;;;;;;;15.68;7.57;;;1.70;99.90;;;;;;4889730;29;20486;-84
2023/03/08 09:15:20;;;;;;;14.88;7.97;;;1.70;99.90;;;;;;4909843;29;20039;-82
2023/03/08 09:17:46;;;;;;;13.00;5.72;;;1.80;99.90;;;;;;4911396;29;20401;-84
2023/03/08 09:20:12;;;;;;;13.52;5.68;;;1.90;99.90;;;;;;4894268;29;20062;-84
2023/03/08 09:22:39;;;;;;;12.23;5.68;;;1.90;99.90;;;;;;4895472;29;20043;-81
2023/03/08 09:25:06;;;;;;;17.27;6.57;;;1.90;99.90;;;;;;4910900;29;20028;-84
2023/03/08 09:27:32;;;;;;;13.10;6.63;;;1.90;99.90;;;;;;4894570;29;20029;-85
2023/03/08 09:29:58;;;;;;;14.27;7.47;;;2.00;99.90;;;;;;4910305;29;20024;-82
2023/03/08 09:32:24;;;;;;;10.90;6.55;;;2.00;99.90;;;;;;4910206;29;20079;-83
2023/03/08 09:34:53;;;;;;;11.82;6.20;;;2.10;99.90;;;;;;4890809;29;20036;-83
2023/03/08 09:37:19;;;;;;;11.68;5.88;;;2.10;99.90;;;;;;4910117;29;20023;-80
2023/03/08 09:39:45;;;;;;;15.40;7.35;;;2.20;99.90;;;;;;4894880;29;21944;-83
2023/03/08 09:42:26;;;;;;;11.18;5.18;;;2.20;99.90;;;;;;4892507;29;20119;-82
2023/03/08 09:45:04;;;;;;;11.10;6.18;;;2.30;99.90;;;;;;4890361;29;21107;-81
2023/03/08 09:47:51;;;;;;;13.68;7.15;;;2.30;99.90;;;;;;4911040;29;20381;-82
2023/03/08 09:50:19;;;;;;;14.25;7.45;;;2.10;99.90;;;;;;4891581;29;20425;-84
2023/03/08 09:53:06;;;;;;;15.10;7.32;;;2.10;99.90;;;;;;4910545;29;20043;-81
2023/03/08 09:55:34;;;;;;;13.65;7.30;;;2.10;99.90;;;;;;4912995;29;20110;-85
2023/03/08 09:58:23;;;;;;;16.60;7.95;;;2.10;99.90;;;;;;4893985;29;20032;-85
2023/03/08 10:00:49;;;;;;;12.45;6.90;;;2.10;99.90;;;;;;4896561;29;20103;-82
2023/03/08 10:03:34;;;;;;;15.27;7.13;;;2.30;99.90;;;;;;4898544;29;20088;-83
2023/03/08 10:06:02;;;;;;;16.65;8.60;;;2.40;99.90;;;;;;4913823;29;20032;-85
2023/03/08 10:08:34;;;;;;;14.98;7.60;;;2.50;99.90;;;;;;4913749;29;20047;-84
2023/03/08 10:11:03;;;;;;;17.10;9.90;;;2.60;99.90;;;;;;4914106;29;20075;-86
2023/03/08 10:13:42;;;;;;;14.60;7.57;;;2.70;99.90;;;;;;4893395;29;20024;-81
2023/03/08 10:16:36;;;;;;;14.60;7.85;;;2.80;99.90;;;;;;4910249;29;20179;-84
2023/03/08 10:19:31;;;;;;;15.43;8.35;;;2.90;99.90;;;;;;4892145;29;20032;-81
2023/03/08 10:22:05;;;;;;;14.82;8.02;;;3.00;99.90;;;;;;4893776;29;20043;-83
2023/03/08 10:24:42;;;;;;;15.70;7.88;;;3.10;99.90;;;;;;4910599;29;20477;-82
2023/03/08 10:27:24;;;;;;;17.48;9.73;;;3.20;99.90;;;;;;4891942;29;20092;-84
2023/03/08 10:29:51;;;;;;;13.93;8.00;;;3.20;99.90;;;;;;4913497;29;20028;-82
2023/03/08 10:32:17;;;;;;;13.57;7.63;;;3.40;99.90;;;;;;4910672;29;20035;-85
2023/03/08 10:34:43;;;;;;;14.30;7.68;;;3.40;99.90;;;;;;4913659;29;20119;-80
2023/03/08 10:37:09;;;;;;;13.00;6.82;;;3.30;99.90;;;;;;4897256;29;20111;-84
2023/03/08 10:39:36;;;;;;;10.65;6.45;;;3.40;99.90;;;;;;4892924;29;20036;-84
2023/03/08 10:42:13;;;;;;;12.63;7.40;;;3.60;99.90;;;;;;4908374;29;20127;-83
2023/03/08 10:44:51;;;;;;;11.50;6.30;;;3.60;99.90;;;;;;4907906;29;20035;-79
2023/03/08 10:47:31;;;;;;;12.65;6.72;;;3.60;99.90;;;;;;4892969;29;20036;-83
2023/03/08 10:50:12;;;;;;;12.48;6.43;;;3.70;99.90;;;;;;4894153;29;20031;-84
2023/03/08 10:52:38;;;;;;;12.57;6.63;;;3.90;99.90;;;;;;4910730;29;20067;-82
2023/03/08 10:55:10;;;;;;;12.68;6.35;;;4.10;99.90;;;;;;4913735;29;20397;-83
2023/03/08 10:57:38;;;;;;;11.55;6.88;;;3.90;99.90;;;;;;4913667;29;20111;-82
2023/03/08 11:00:19;;;;;;;10.95;5.90;;;3.80;99.90;;;;;;4910662;29;20516;-84
2023/03/08 11:02:47;;;;;;;11.57;6.50;;;3.50;99.90;;;;;;4893110;29;20074;-81
2023/03/08 11:05:21;;;;;;;12.07;7.00;;;3.40;99.90;;;;;;4893490;29;20171;-82
2023/03/08 11:07:52;;;;;;;12.40;6.07;;;3.50;99.90;;;;;;4894780;29;20044;-81
2023/03/08 11:10:22;;;;;;;8.98;5.25;;;3.60;99.90;;;;;;4912197;29;20025;-80
2023/03/08 11:12:59;;;;;;;10.77;6.03;;;3.90;99.90;;;;;;4892330;29;20043;-81
2023/03/08 11:15:27;;;;;;;10.00;5.63;;;3.90;99.90;;;;;;4889033;29;20493;-80
2023/03/08 11:18:00;;;;;;;9.48;5.25;;;3.90;99.90;;;;;;4893667;29;20122;-83
2023/03/08 11:20:33;;;;;;;11.10;6.10;;;3.90;99.90;;;;;;4913304;29;20020;-81
2023/03/08 11:23:19;;;;;;;12.57;6.60;;;3.80;99.90;;;;;;4912069;29;20058;-80
2023/03/08 11:25:46;;;;;;;10.07;6.20;;;3.70;99.90;;;;;;4892764;29;20028;-80
2023/03/08 11:28:25;;;;;;;9.93;4.70;;;3.60;99.90;;;;;;4907581;29;20028;-80
2023/03/08 11:31:03;;;;;;;9.25;5.20;;;3.70;99.90;;;;;;4895384;29;20064;-81
2023/03/08 11:33:37;;;;;;;9.50;5.57;;;3.70;99.90;;;;;;4894164;29;20064;-80
2023/03/08 11:36:30;;;;;;;11.98;6.25;;;3.60;99.90;;;;;;4912849;29;20032;-80
2023/03/08 11:39:03;;;;;;;9.70;5.20;;;3.60;99.90;;;;;;4911635;29;20068;-82
2023/03/08 11:41:56;;;;;;;7.05;4.45;;;3.50;99.90;;;;;;4910473;29;20047;-82
2023/03/08 11:44:44;;;;;;;7.72;4.22;;;3.60;99.90;;;;;;4892370;29;20036;-82
2023/03/08 11:47:42;;;;;;;8.10;4.53;;;3.60;99.90;;;;;;4892618;29;20035;-82
2023/03/08 11:50:34;;;;;;;7.15;3.35;;;3.60;99.90;;;;;;4891850;29;20029;-83
2023/03/08 11:53:21;;;;;;;8.25;4.03;;;3.70;99.90;;;;;;4909415;29;20032;-83
2023/03/08 11:55:59;;;;;;;7.75;4.05;;;3.70;99.90;;;;;;4893050;29;20048;-83
2023/03/08 11:58:27;;;;;;;5.63;2.85;;;3.60;99.90;;;;;;4891351;29;20474;-83
2023/03/08 12:00:59;;;;;;;6.15;3.90;;;3.70;99.90;;;;;;4895762;29;20040;-82
2023/03/08 12:03:42;;;;;;;7.07;3.90;;;3.70;99.90;;;;;;4893061;29;20024;-83
2023/03/08 12:06:26;;;;;;;6.25;3.15;;;3.60;99.90;;;;;;4891792;29;20032;-82
2023/03/08 12:09:03;;;;;;;7.03;3.47;;;3.60;99.90;;;;;;4893268;29;20024;-83
2023/03/08 12:11:35;;;;;;;7.18;3.42;;;3.50;99.90;;;;;;4890667;29;20035;-82
2023/03/08 12:14:17;;;;;;;6.72;3.35;;;3.40;99.90;;;;;;4907062;29;20036;-83
2023/03/08 12:17:00;;;;;;;5.47;2.70;;;3.40;99.90;;;;;;4890852;29;20036;-80
2023/03/08 12:19:42;;;;;;;6.65;3.22;;;3.50;99.90;;;;;;4910710;29;20044;-78
2023/03/08 12:22:35;;;;;;;4.88;2.17;;;3.30;99.90;;;;;;4890125;29;20051;-80
2023/03/08 12:25:23;;;;;;;5.43;3.00;;;3.40;99.90;;;;;;4909279;29;20036;-80
2023/03/08 12:27:52;;;;;;;6.35;3.15;;;3.30;99.90;;;;;;4911405;29;20377;-81
2023/03/08 12:30:38;;;;;;;5.10;1.92;;;3.40;99.90;;;;;;4911482;29;20389;-81
2023/03/08 12:33:08;;;;;;;4.70;2.50;;;3.40;99.90;;;;;;4892681;29;20083;-80
2023/03/08 12:35:35;;;;;;;4.65;2.42;;;3.40;99.90;;;;;;4907445;29;20124;-80
2023/03/08 12:38:06;;;;;;;5.15;2.40;;;3.50;99.90;;;;;;4892067;29;20400;-80
2023/03/08 12:40:44;;;;;;;3.85;2.03;;;3.50;99.90;;;;;;4894515;29;20035;-80
2023/03/08 12:43:31;;;;;;;4.43;2.17;;;3.40;99.90;;;;;;4907719;29;20118;-80
2023/03/08 12:45:59;;;;;;;4.57;2.03;;;3.40;99.90;;;;;;4911377;29;20036;-80
2023/03/08 12:48:26;;;;;;;4.85;2.22;;;3.30;99.90;;;;;;4912300;29;20024;-81
2023/03/08 12:50:52;;;;;;;3.67;1.80;;;3.40;99.90;;;;;;4891909;29;20036;-80
2023/03/08 12:53:33;;;;;;;3.22;1.60;;;3.50;99.90;;;;;;4893010;29;20179;-81
2023/03/08 12:56:03;;;;;;;4.68;2.10;;;3.60;99.90;;;;;;4889676;29;20130;-80
2023/03/08 12:58:31;;;;;;;3.80;2.08;;;3.60;99.90;;;;;;4890778;29;20115;-79
2023/03/08 13:01:03;;;;;;;5.10;2.17;;;3.50;99.90;;;;;;4874357;29;20035;-80